Serval — J8B4154 — position and weather

sailwx.info

Track history (hours):
 
Tides and Currents Weather Stations Pressure Air Temp Water Temp Dewpoint Dewpoint Depression Visibility Wind Speed Wind Dir Waves Ship Positions

Serval

Last reported at 2014-Sep-29 07:28 UTC. Time now 2014-Oct-01 14:21 UTC.
Position N 53°57' E 006°23'.

Length 30 m; draft 4.5 m.

Type: . MMSI: 377103000.

Date/timePositionNaut miles runAvg speedWind from/ knotsBaromVisibWave heightAir tempDewpointWater temp
2014-Sep-29 07:28N 53°57' E 006°23'1 0.1
2014-Sep-28 18:31N 53°57' E 006°23'25 0.5
2014-Sep-26 16:29N 53°34' E 006°40'7 7.0
2014-Sep-26 15:33N 53°30' E 006°48'3 2.6
2014-Sep-26 14:33N 53°27' E 006°50'0 0.0
2014-Sep-26 13:33N 53°27' E 006°50'0 0.0
2014-Sep-26 12:30N 53°27' E 006°50'0 0.0
2014-Sep-26 11:33N 53°27' E 006°50'0 0.0
2014-Sep-26 10:33N 53°27' E 006°50'0 0.0
2014-Sep-26 09:33N 53°27' E 006°50'0 0.0
2014-Sep-26 08:33N 53°27' E 006°50'0 0.0
2014-Sep-26 07:33N 53°27' E 006°50'0 0.0
2014-Sep-26 06:33N 53°27' E 006°50'0 0.0
2014-Sep-26 05:33N 53°27' E 006°50'0 0.0
2014-Sep-26 04:33N 53°27' E 006°50'0 0.0
2014-Sep-26 03:33N 53°27' E 006°50'0 0.0
2014-Sep-26 02:33N 53°27' E 006°50'0 0.0
2014-Sep-26 01:33N 53°27' E 006°50'0 0.0
2014-Sep-26 00:33N 53°27' E 006°50'0 0.0
2014-Sep-25 23:33N 53°27' E 006°50'0 0.0
2014-Sep-25 22:33N 53°27' E 006°50'0 0.0
2014-Sep-25 21:33N 53°27' E 006°50'0 0.0
2014-Sep-25 20:30N 53°27' E 006°50'0 0.0
2014-Sep-25 19:33N 53°27' E 006°50'0 0.0
2014-Sep-25 18:33N 53°27' E 006°50'0 0.0
2014-Sep-25 17:33N 53°27' E 006°50'0 0.0
2014-Sep-25 16:33N 53°27' E 006°50'0 0.0
2014-Sep-25 15:33N 53°27' E 006°50'0 0.0
2014-Sep-25 14:33N 53°27' E 006°50'0 0.0
2014-Sep-25 13:33N 53°27' E 006°50'0 0.0
2014-Sep-25 12:33N 53°27' E 006°50'0 0.0
2014-Sep-25 11:27N 53°27' E 006°50'0 0.0
2014-Sep-25 10:33N 53°27' E 006°50'0 0.0
2014-Sep-25 09:33N 53°27' E 006°50'0 0.0
2014-Sep-25 08:33N 53°27' E 006°50'0 0.0
2014-Sep-25 07:33N 53°27' E 006°50'0 0.0
2014-Sep-25 06:33N 53°27' E 006°50'0 0.0
2014-Sep-25 05:33N 53°27' E 006°50'0 0.0
2014-Sep-25 04:33N 53°27' E 006°50'0 0.0
2014-Sep-25 03:33N 53°27' E 006°50'0 0.0
2014-Sep-25 02:33N 53°27' E 006°50'0 0.0
2014-Sep-25 01:33N 53°27' E 006°50'0 0.0
2014-Sep-25 00:33N 53°27' E 006°50'0 0.0
2014-Sep-24 23:33N 53°27' E 006°50'0 0.0
2014-Sep-24 22:33N 53°27' E 006°50'1 0.7
2014-Sep-24 21:33N 53°28' E 006°50'7 7.2
2014-Sep-24 20:33N 53°33' E 006°42'  
2014-Sep-19 20:31N 53°54' E 006°23'2 1.1
2014-Sep-19 18:32N 53°55' E 006°27'4 0.6
2014-Sep-19 11:19N 53°58' E 006°23'  
Track history (hours):
 
Tides and Currents Weather Stations Pressure Air Temp Water Temp Dewpoint Dewpoint Depression Visibility Wind Speed Wind Dir Waves Ship Positions

Serval

Last reported at 2014-Sep-29 07:28 UTC. Time now 2014-Oct-01 14:21 UTC.
Position N 53°57' E 006°23'.

Length 30 m; draft 4.5 m.

Type: . MMSI: 377103000.

Date/timePositionNaut miles runAvg speedWind from/ knotsBaromVisibWave heightAir tempDewpointWater temp
2014-Sep-29 07:28N 53°57' E 006°23'1 0.1
2014-Sep-28 18:31N 53°57' E 006°23'25 0.5
2014-Sep-26 16:29N 53°34' E 006°40'7 7.0
2014-Sep-26 15:33N 53°30' E 006°48'3 2.6
2014-Sep-26 14:33N 53°27' E 006°50'0 0.0
2014-Sep-26 13:33N 53°27' E 006°50'0 0.0
2014-Sep-26 12:30N 53°27' E 006°50'0 0.0
2014-Sep-26 11:33N 53°27' E 006°50'0 0.0
2014-Sep-26 10:33N 53°27' E 006°50'0 0.0
2014-Sep-26 09:33N 53°27' E 006°50'0 0.0
2014-Sep-26 08:33N 53°27' E 006°50'0 0.0
2014-Sep-26 07:33N 53°27' E 006°50'0 0.0
2014-Sep-26 06:33N 53°27' E 006°50'0 0.0
2014-Sep-26 05:33N 53°27' E 006°50'0 0.0
2014-Sep-26 04:33N 53°27' E 006°50'0 0.0
2014-Sep-26 03:33N 53°27' E 006°50'0 0.0
2014-Sep-26 02:33N 53°27' E 006°50'0 0.0
2014-Sep-26 01:33N 53°27' E 006°50'0 0.0
2014-Sep-26 00:33N 53°27' E 006°50'0 0.0
2014-Sep-25 23:33N 53°27' E 006°50'0 0.0
2014-Sep-25 22:33N 53°27' E 006°50'0 0.0
2014-Sep-25 21:33N 53°27' E 006°50'0 0.0
2014-Sep-25 20:30N 53°27' E 006°50'0 0.0
2014-Sep-25 19:33N 53°27' E 006°50'0 0.0
2014-Sep-25 18:33N 53°27' E 006°50'0 0.0
2014-Sep-25 17:33N 53°27' E 006°50'0 0.0
2014-Sep-25 16:33N 53°27' E 006°50'0 0.0
2014-Sep-25 15:33N 53°27' E 006°50'0 0.0
2014-Sep-25 14:33N 53°27' E 006°50'0 0.0
2014-Sep-25 13:33N 53°27' E 006°50'0 0.0
2014-Sep-25 12:33N 53°27' E 006°50'0 0.0
2014-Sep-25 11:27N 53°27' E 006°50'0 0.0
2014-Sep-25 10:33N 53°27' E 006°50'0 0.0
2014-Sep-25 09:33N 53°27' E 006°50'0 0.0
2014-Sep-25 08:33N 53°27' E 006°50'0 0.0
2014-Sep-25 07:33N 53°27' E 006°50'0 0.0
2014-Sep-25 06:33N 53°27' E 006°50'0 0.0
2014-Sep-25 05:33N 53°27' E 006°50'0 0.0
2014-Sep-25 04:33N 53°27' E 006°50'0 0.0
2014-Sep-25 03:33N 53°27' E 006°50'0 0.0
2014-Sep-25 02:33N 53°27' E 006°50'0 0.0
2014-Sep-25 01:33N 53°27' E 006°50'0 0.0
2014-Sep-25 00:33N 53°27' E 006°50'0 0.0
2014-Sep-24 23:33N 53°27' E 006°50'0 0.0
2014-Sep-24 22:33N 53°27' E 006°50'1 0.7
2014-Sep-24 21:33N 53°28' E 006°50'7 7.2
2014-Sep-24 20:33N 53°33' E 006°42'  
2014-Sep-19 20:31N 53°54' E 006°23'2 1.1
2014-Sep-19 18:32N 53°55' E 006°27'4 0.6
2014-Sep-19 11:19N 53°58' E 006°23'  

Dump ship's entire track history